Time;durP1;ratioP1;P1;durP2;ratioP2;P2;SDS_P1;SDS_P2;PMS_P1;PMS_P2;Temp;Humidity;BMP_temperature;BMP_pressure;BME280_temperature;BME280_humidity;BME280_pressure;Samples;Min_cycle;Max_cycle;Signal;HPM_P1;HPM_P2
2024/03/23 00:02:04;;;;;;;12.27;7.55;;;10.40;99.90;;;;;;5031346;28;20704;-75
2024/03/23 00:04:30;;;;;;;15.57;7.90;;;10.40;99.90;;;;;;5033850;28;20185;-75
2024/03/23 00:06:57;;;;;;;13.00;6.70;;;10.40;99.90;;;;;;5029802;28;20232;-75
2024/03/23 00:09:24;;;;;;;13.73;8.15;;;10.40;99.90;;;;;;5029801;28;20216;-75
2024/03/23 00:11:51;;;;;;;13.60;8.35;;;10.40;99.90;;;;;;5030933;28;20188;-75
2024/03/23 00:14:18;;;;;;;17.88;9.50;;;10.30;99.90;;;;;;5045399;28;20173;-75
2024/03/23 00:16:45;;;;;;;11.55;7.00;;;10.30;99.90;;;;;;4998486;28;20272;-75
2024/03/23 00:19:12;;;;;;;13.13;7.47;;;10.30;99.90;;;;;;5029311;28;20803;-75
2024/03/23 00:21:40;;;;;;;11.68;6.57;;;10.30;99.90;;;;;;5039386;28;20189;-75
2024/03/23 00:24:12;;;;;;;15.00;8.43;;;10.30;99.90;;;;;;5030797;28;20174;-75
2024/03/23 00:26:38;;;;;;;13.18;6.60;;;10.30;99.90;;;;;;5029658;28;20618;-75
2024/03/23 00:29:05;;;;;;;14.45;8.13;;;10.30;99.90;;;;;;5030800;28;20197;-76
2024/03/23 00:31:32;;;;;;;13.60;6.82;;;10.20;99.90;;;;;;5029767;28;20674;-75
2024/03/23 00:33:58;;;;;;;15.35;7.63;;;10.20;99.90;;;;;;5029278;28;20170;-75
2024/03/23 00:36:25;;;;;;;14.50;7.50;;;10.20;99.90;;;;;;5029686;28;20170;-75
2024/03/23 00:38:52;;;;;;;14.57;7.47;;;10.20;99.90;;;;;;5030085;28;20288;-75
2024/03/23 00:41:19;;;;;;;13.85;8.73;;;10.20;99.90;;;;;;5030650;28;20170;-75
2024/03/23 00:43:45;;;;;;;15.82;8.20;;;10.20;99.90;;;;;;5030226;28;20269;-75
2024/03/23 00:46:12;;;;;;;15.95;8.02;;;10.20;99.90;;;;;;5030455;28;20170;-75
2024/03/23 00:48:39;;;;;;;12.38;6.47;;;10.20;99.90;;;;;;5031131;28;20201;-75
2024/03/23 00:51:05;;;;;;;13.75;7.38;;;10.20;99.90;;;;;;5036574;28;20206;-76
2024/03/23 00:53:33;;;;;;;8.65;5.07;;;10.20;99.90;;;;;;5030639;28;20847;-76
2024/03/23 00:55:59;;;;;;;13.98;6.93;;;10.20;99.90;;;;;;5012962;28;20224;-75
2024/03/23 00:58:25;;;;;;;10.98;7.57;;;10.10;99.90;;;;;;5031305;28;20201;-75
2024/03/23 01:00:51;;;;;;;12.10;5.97;;;10.10;99.90;;;;;;5014639;28;20177;-75
2024/03/23 01:03:17;;;;;;;11.40;5.63;;;10.10;99.90;;;;;;5036263;28;20186;-75
2024/03/23 01:05:42;;;;;;;12.07;7.40;;;10.10;99.90;;;;;;5053831;28;20189;-75
2024/03/23 01:08:08;;;;;;;8.33;5.13;;;10.10;99.90;;;;;;5034711;28;20568;-75
2024/03/23 01:10:34;;;;;;;12.00;5.43;;;10.10;99.90;;;;;;5030407;28;20300;-76
2024/03/23 01:12:59;;;;;;;11.47;6.70;;;10.10;99.90;;;;;;5048637;28;20509;-75
2024/03/23 01:15:25;;;;;;;10.60;6.33;;;10.10;99.90;;;;;;5033967;28;20184;-75
2024/03/23 01:17:51;;;;;;;13.80;6.20;;;10.10;99.90;;;;;;5035239;28;20690;-75
2024/03/23 01:20:16;;;;;;;10.97;6.07;;;10.00;99.90;;;;;;5029034;28;20165;-76
2024/03/23 01:22:42;;;;;;;10.57;5.90;;;10.00;99.90;;;;;;5036696;28;20184;-75
2024/03/23 01:25:08;;;;;;;8.70;4.40;;;10.00;99.90;;;;;;5030065;28;20577;-75
2024/03/23 01:27:34;;;;;;;6.70;3.60;;;9.90;99.90;;;;;;5046205;28;20762;-75
2024/03/23 01:29:59;;;;;;;5.37;3.07;;;9.90;99.90;;;;;;5031242;28;20656;-75
2024/03/23 01:32:25;;;;;;;5.80;3.40;;;9.80;99.90;;;;;;5038040;28;20213;-75
2024/03/23 01:34:51;;;;;;;4.10;2.23;;;9.70;99.90;;;;;;5032816;28;20162;-75
2024/03/23 01:37:17;;;;;;;5.43;3.07;;;9.70;99.90;;;;;;5038060;28;20574;-75
2024/03/23 01:39:42;;;;;;;5.53;2.23;;;9.60;99.90;;;;;;5030748;28;20526;-75
2024/03/23 01:42:08;;;;;;;5.70;2.37;;;9.60;99.90;;;;;;5036326;28;20197;-75
2024/03/23 01:44:33;;;;;;;5.50;3.40;;;9.60;99.90;;;;;;5030393;28;20181;-76
2024/03/23 01:46:59;;;;;;;6.67;2.50;;;9.50;99.90;;;;;;5046630;28;20613;-75
2024/03/23 01:49:25;;;;;;;4.90;2.90;;;9.50;99.90;;;;;;5028987;28;20702;-75
2024/03/23 01:51:51;;;;;;;4.00;2.30;;;9.50;99.90;;;;;;5030091;28;20189;-76
2024/03/23 01:54:17;;;;;;;6.33;2.50;;;9.50;99.90;;;;;;5034218;28;21522;-75
2024/03/23 01:56:42;;;;;;;4.90;2.60;;;9.40;99.90;;;;;;5037689;28;20523;-75
2024/03/23 01:59:08;;;;;;;4.70;2.60;;;9.40;99.90;;;;;;5040398;28;20942;-76
2024/03/23 02:01:37;;;;;;;4.73;2.30;;;9.40;99.90;;;;;;5033616;28;20543;-76
2024/03/23 02:04:02;;;;;;;9.32;2.50;;;9.30;99.90;;;;;;5043552;28;20575;-75
2024/03/23 02:06:29;;;;;;;4.50;2.63;;;9.30;99.90;;;;;;5045738;28;20636;-75
2024/03/23 02:08:57;;;;;;;8.00;2.75;;;9.30;99.90;;;;;;5033964;28;20682;-75
2024/03/23 02:11:23;;;;;;;6.88;2.78;;;9.30;99.90;;;;;;5032710;28;20236;-75
2024/03/23 02:13:51;;;;;;;3.43;2.23;;;9.30;99.90;;;;;;5042502;28;20585;-75
2024/03/23 02:16:17;;;;;;;6.15;2.42;;;9.20;99.90;;;;;;5017588;28;20257;-76
2024/03/23 02:18:43;;;;;;;5.60;2.40;;;9.20;99.90;;;;;;5031837;28;20296;-75
2024/03/23 02:21:09;;;;;;;6.13;2.40;;;9.20;99.90;;;;;;5037565;28;20523;-76
2024/03/23 02:23:34;;;;;;;5.57;2.00;;;9.20;99.90;;;;;;5035041;28;20182;-76
2024/03/23 02:26:00;;;;;;;7.17;2.37;;;9.20;99.90;;;;;;5034719;28;20181;-75
2024/03/23 02:28:26;;;;;;;6.93;3.03;;;9.10;99.90;;;;;;5038149;28;20304;-76
2024/03/23 02:30:52;;;;;;;6.70;2.50;;;9.00;99.90;;;;;;5064759;28;20288;-76
2024/03/23 02:33:18;;;;;;;4.67;2.17;;;9.00;99.90;;;;;;5041558;28;20177;-75
2024/03/23 02:35:45;;;;;;;4.00;1.63;;;8.90;99.90;;;;;;5040885;28;20587;-76
2024/03/23 02:38:10;;;;;;;2.95;1.67;;;8.90;99.90;;;;;;5032991;28;20201;-76
2024/03/23 02:40:39;;;;;;;3.37;1.27;;;8.70;99.90;;;;;;5033092;28;20799;-76
2024/03/23 02:43:05;;;;;;;3.22;1.17;;;8.60;99.90;;;;;;5036962;28;20173;-76
2024/03/23 02:45:31;;;;;;;5.47;0.90;;;8.50;99.90;;;;;;5031289;28;20213;-76
2024/03/23 02:47:57;;;;;;;4.13;1.40;;;8.50;99.90;;;;;;5019144;28;20233;-76
2024/03/23 02:50:23;;;;;;;2.83;0.90;;;8.40;99.90;;;;;;5041533;28;20229;-76
2024/03/23 02:52:49;;;;;;;4.40;1.87;;;8.40;99.90;;;;;;5031236;28;20235;-76
2024/03/23 02:55:15;;;;;;;3.90;1.07;;;8.30;99.90;;;;;;5050951;28;20218;-76
2024/03/23 02:57:41;;;;;;;7.60;1.60;;;8.30;99.90;;;;;;5051287;28;20630;-76
2024/03/23 03:00:09;;;;;;;2.47;1.10;;;8.30;99.90;;;;;;5039578;28;20188;-76
2024/03/23 03:02:34;;;;;;;3.17;1.30;;;8.30;99.90;;;;;;5034773;28;20331;-76
2024/03/23 03:05:00;;;;;;;4.67;1.33;;;8.20;99.90;;;;;;5032227;28;20288;-75
2024/03/23 03:07:26;;;;;;;4.68;2.10;;;8.30;99.90;;;;;;5051146;28;20266;-76
2024/03/23 03:09:52;;;;;;;5.13;1.38;;;8.20;99.90;;;;;;5032783;28;20343;-76
2024/03/23 03:12:18;;;;;;;3.00;1.47;;;8.20;99.90;;;;;;5030978;28;20680;-76
2024/03/23 03:14:44;;;;;;;6.07;1.43;;;8.20;99.90;;;;;;5022501;28;20299;-76
2024/03/23 03:17:10;;;;;;;6.73;1.60;;;8.20;99.90;;;;;;5030789;28;20185;-76
2024/03/23 03:19:35;;;;;;;4.17;1.70;;;8.20;99.90;;;;;;5014685;28;20595;-76
2024/03/23 03:22:01;;;;;;;5.27;1.90;;;8.20;99.90;;;;;;5014310;28;20182;-75
2024/03/23 03:24:27;;;;;;;5.40;1.60;;;8.20;99.90;;;;;;5030456;28;20671;-77
2024/03/23 03:26:53;;;;;;;2.23;1.40;;;8.20;99.90;;;;;;5033104;28;20185;-76
2024/03/23 03:29:18;;;;;;;6.27;1.40;;;8.20;99.90;;;;;;5030899;28;20181;-76
2024/03/23 03:31:44;;;;;;;4.80;1.30;;;8.20;99.90;;;;;;5048423;28;20943;-75
2024/03/23 03:34:10;;;;;;;4.30;2.03;;;8.20;99.90;;;;;;5031881;28;20201;-75
2024/03/23 03:36:35;;;;;;;7.67;1.40;;;8.20;99.90;;;;;;5030693;28;20178;-74
2024/03/23 03:39:03;;;;;;;5.63;1.67;;;8.20;99.90;;;;;;5031661;28;20636;-75
2024/03/23 03:41:29;;;;;;;9.90;1.45;;;8.20;99.90;;;;;;5032123;28;20181;-75
2024/03/23 03:43:55;;;;;;;3.10;1.00;;;8.10;99.90;;;;;;5039784;28;20173;-74
2024/03/23 03:46:21;;;;;;;3.05;1.40;;;8.10;99.90;;;;;;5030595;28;20184;-75
2024/03/23 03:48:48;;;;;;;4.77;1.10;;;8.10;99.90;;;;;;5030529;28;20205;-75
2024/03/23 03:51:14;;;;;;;3.45;1.08;;;8.10;99.90;;;;;;5030404;28;20659;-76
2024/03/23 03:53:40;;;;;;;1.90;0.80;;;8.10;99.90;;;;;;5041891;28;20208;-75
2024/03/23 03:56:05;;;;;;;6.00;1.93;;;8.10;99.90;;;;;;5038865;28;20162;-75
2024/03/23 03:58:31;;;;;;;4.97;1.20;;;8.10;99.90;;;;;;5031738;28;20609;-76
2024/03/23 04:00:57;;;;;;;5.30;1.30;;;8.10;99.90;;;;;;5030334;28;21142;-75
2024/03/23 04:03:22;;;;;;;2.77;1.00;;;8.10;99.90;;;;;;5031334;28;20396;-76
2024/03/23 04:05:53;;;;;;;4.80;1.23;;;8.10;99.90;;;;;;5037574;28;20191;-76
2024/03/23 04:08:19;;;;;;;3.40;0.90;;;8.10;99.90;;;;;;5039348;28;20197;-76
2024/03/23 04:10:45;;;;;;;3.08;0.90;;;8.10;99.90;;;;;;5047261;28;20212;-76
2024/03/23 04:13:14;;;;;;;8.50;1.15;;;8.10;99.90;;;;;;5039844;28;20176;-76
2024/03/23 04:15:40;;;;;;;4.25;1.00;;;8.10;99.90;;;;;;5030256;28;20224;-76
2024/03/23 04:18:06;;;;;;;6.50;1.30;;;8.10;99.90;;;;;;5038069;28;20233;-76
2024/03/23 04:20:32;;;;;;;6.10;1.30;;;8.10;99.90;;;;;;5049650;28;20583;-76
2024/03/23 04:22:58;;;;;;;5.60;1.00;;;8.10;99.90;;;;;;5042040;28;20716;-76
2024/03/23 04:25:24;;;;;;;5.93;2.47;;;8.10;99.90;;;;;;5051203;28;20173;-75
2024/03/23 04:27:50;;;;;;;4.47;1.10;;;8.10;99.90;;;;;;5041641;28;20201;-75
2024/03/23 04:30:16;;;;;;;9.07;1.40;;;8.10;99.90;;;;;;5030411;28;20209;-76
2024/03/23 04:32:42;;;;;;;6.20;1.08;;;8.10;99.90;;;;;;5031628;28;20224;-76
2024/03/23 04:35:11;;;;;;;4.73;1.37;;;8.20;99.90;;;;;;5032460;28;20547;-76
2024/03/23 04:37:37;;;;;;;5.35;1.45;;;8.20;99.90;;;;;;5032272;28;20200;-76
2024/03/23 04:40:03;;;;;;;7.85;1.95;;;8.20;99.90;;;;;;5041607;28;20243;-76
2024/03/23 04:42:30;;;;;;;7.53;1.30;;;8.20;99.90;;;;;;5034123;28;20188;-77
2024/03/23 04:44:56;;;;;;;3.90;1.40;;;8.20;99.90;;;;;;5031778;28;20181;-76
2024/03/23 04:47:22;;;;;;;4.03;1.40;;;8.20;99.90;;;;;;5030094;28;20201;-75
2024/03/23 04:49:48;;;;;;;7.10;1.20;;;8.20;99.90;;;;;;5031485;28;20652;-76
2024/03/23 04:52:16;;;;;;;9.70;1.10;;;8.20;99.90;;;;;;5051078;28;20540;-76
2024/03/23 04:54:49;;;;;;;3.40;0.90;;;8.20;99.90;;;;;;5051155;28;20173;-76
2024/03/23 04:57:16;;;;;;;4.22;1.30;;;8.20;99.90;;;;;;5046319;28;20209;-76
2024/03/23 04:59:47;;;;;;;8.60;1.92;;;8.30;99.90;;;;;;5041548;28;20260;-76
2024/03/23 05:02:13;;;;;;;5.45;1.20;;;8.30;99.90;;;;;;5037000;28;20181;-76
2024/03/23 05:04:41;;;;;;;7.55;2.10;;;8.30;99.90;;;;;;5029370;28;20272;-76
2024/03/23 05:07:07;;;;;;;2.90;1.23;;;8.30;99.90;;;;;;5032104;28;20535;-75
2024/03/23 05:09:33;;;;;;;5.60;1.92;;;8.30;99.90;;;;;;5043000;28;20205;-75
2024/03/23 05:12:00;;;;;;;5.30;1.60;;;8.30;99.90;;;;;;5033870;28;20183;-76
2024/03/23 05:14:26;;;;;;;5.72;1.40;;;8.30;99.90;;;;;;5030584;28;20226;-75
2024/03/23 05:16:53;;;;;;;6.15;1.23;;;8.30;99.90;;;;;;5033273;28;20241;-77
2024/03/23 05:19:19;;;;;;;2.95;0.95;;;8.30;99.90;;;;;;5031497;28;20205;-75
2024/03/23 05:21:45;;;;;;;2.77;1.00;;;8.30;99.90;;;;;;5041418;28;20269;-75
2024/03/23 05:24:12;;;;;;;4.40;1.30;;;8.30;99.90;;;;;;5048617;28;20186;-76
2024/03/23 05:26:38;;;;;;;5.18;1.30;;;8.30;99.90;;;;;;5047140;28;20172;-79
2024/03/23 05:29:03;;;;;;;6.07;1.63;;;8.30;99.90;;;;;;5060628;28;20201;-78
2024/03/23 05:31:31;;;;;;;4.67;1.50;;;8.30;99.90;;;;;;5057952;28;20240;-80
2024/03/23 05:33:57;;;;;;;7.32;1.40;;;8.30;99.90;;;;;;5058038;28;20593;-79
2024/03/23 05:36:24;;;;;;;9.82;1.23;;;8.30;99.90;;;;;;5055927;28;20193;-77
2024/03/23 05:38:50;;;;;;;6.20;1.10;;;8.30;99.90;;;;;;5054274;28;20206;-78
2024/03/23 05:41:15;;;;;;;7.97;1.50;;;8.30;99.90;;;;;;5057351;28;20177;-78
2024/03/23 05:43:41;;;;;;;6.97;1.30;;;8.30;99.90;;;;;;5053720;28;20244;-78
2024/03/23 05:46:10;;;;;;;4.47;1.37;;;8.30;99.90;;;;;;5056254;28;20172;-78
2024/03/23 05:48:35;;;;;;;5.53;1.38;;;8.30;99.90;;;;;;5054350;28;20197;-79
2024/03/23 05:51:01;;;;;;;4.90;1.10;;;8.30;99.90;;;;;;5064361;28;20272;-79
2024/03/23 05:53:29;;;;;;;4.40;1.23;;;8.30;99.90;;;;;;5061848;28;20218;-79
2024/03/23 05:56:06;;;;;;;5.55;1.45;;;8.30;99.90;;;;;;5067076;28;20173;-78
2024/03/23 05:58:33;;;;;;;2.72;1.00;;;8.30;99.90;;;;;;5056696;28;20201;-78
2024/03/23 06:01:02;;;;;;;4.45;1.20;;;8.30;99.90;;;;;;5036820;28;20177;-76
2024/03/23 06:03:29;;;;;;;6.65;1.20;;;8.30;99.90;;;;;;5041442;28;20587;-75
2024/03/23 06:05:55;;;;;;;4.55;1.42;;;8.30;99.90;;;;;;5041144;28;20651;-76
2024/03/23 06:08:20;;;;;;;9.15;1.95;;;8.30;99.90;;;;;;5041399;28;20285;-75
2024/03/23 06:10:47;;;;;;;5.73;1.43;;;8.30;99.90;;;;;;5046033;28;20244;-75
2024/03/23 06:13:13;;;;;;;6.25;1.20;;;8.40;99.90;;;;;;5028875;28;20237;-75
2024/03/23 06:15:39;;;;;;;8.10;1.20;;;8.30;99.90;;;;;;5039788;28;20169;-76
2024/03/23 06:18:05;;;;;;;5.37;1.60;;;8.30;99.90;;;;;;5041595;28;20219;-76
2024/03/23 06:20:31;;;;;;;4.35;1.25;;;8.40;99.90;;;;;;5040368;28;20198;-75
2024/03/23 06:22:57;;;;;;;6.23;1.77;;;8.30;99.90;;;;;;5040885;28;20258;-75
2024/03/23 06:25:23;;;;;;;4.65;1.67;;;8.30;99.90;;;;;;5038220;28;20200;-75
2024/03/23 06:27:48;;;;;;;5.87;1.80;;;8.40;99.90;;;;;;5038888;28;20193;-75
2024/03/23 06:30:14;;;;;;;6.07;1.50;;;8.40;99.90;;;;;;5032404;28;20210;-75
2024/03/23 06:32:40;;;;;;;6.40;1.43;;;8.40;99.90;;;;;;5042500;28;20170;-75
2024/03/23 06:35:08;;;;;;;5.17;1.40;;;8.40;99.90;;;;;;5033419;28;20576;-75
2024/03/23 06:37:38;;;;;;;5.53;1.60;;;8.40;99.90;;;;;;5020943;28;20201;-76
2024/03/23 06:40:08;;;;;;;6.63;1.55;;;8.40;99.90;;;;;;5032951;28;20185;-76
2024/03/23 06:42:34;;;;;;;10.65;1.75;;;8.40;99.90;;;;;;5032924;28;20185;-76
2024/03/23 06:45:00;;;;;;;4.97;1.83;;;8.50;99.90;;;;;;5047191;28;20670;-76
2024/03/23 06:47:26;;;;;;;8.45;2.10;;;8.50;99.90;;;;;;5041055;28;20198;-76
2024/03/23 06:49:52;;;;;;;9.30;1.60;;;8.50;99.90;;;;;;5031653;28;20955;-76
2024/03/23 06:52:17;;;;;;;6.43;2.03;;;8.60;99.90;;;;;;5032757;28;20235;-76
2024/03/23 06:54:44;;;;;;;6.50;2.03;;;8.50;99.90;;;;;;5032646;28;20206;-76
2024/03/23 06:57:13;;;;;;;6.50;2.13;;;8.50;99.90;;;;;;5017176;28;20181;-76
2024/03/23 06:59:39;;;;;;;7.10;2.15;;;8.60;99.90;;;;;;5047336;28;20177;-76
2024/03/23 07:02:08;;;;;;;4.80;1.80;;;8.60;99.90;;;;;;5034214;28;20624;-75
2024/03/23 07:04:35;;;;;;;3.25;1.55;;;8.60;99.90;;;;;;5037982;28;20219;-75
2024/03/23 07:07:02;;;;;;;5.15;1.60;;;8.70;99.90;;;;;;5016721;28;20554;-76
2024/03/23 07:09:31;;;;;;;10.23;2.78;;;8.80;99.90;;;;;;5041300;28;20189;-76
2024/03/23 07:11:57;;;;;;;7.32;2.33;;;8.80;99.90;;;;;;5039099;28;20173;-75
2024/03/23 07:14:23;;;;;;;7.90;2.45;;;8.90;99.90;;;;;;5032117;28;20724;-75
2024/03/23 07:16:50;;;;;;;5.57;3.03;;;8.90;99.90;;;;;;5038168;28;20178;-76
2024/03/23 07:19:16;;;;;;;7.00;2.30;;;9.00;99.90;;;;;;5037320;28;20201;-75
2024/03/23 07:21:43;;;;;;;6.38;2.67;;;9.00;99.90;;;;;;5038770;28;20196;-76
2024/03/23 07:24:09;;;;;;;5.82;1.75;;;9.10;99.90;;;;;;5031947;28;20188;-75
2024/03/23 07:26:35;;;;;;;7.45;2.85;;;9.40;99.90;;;;;;5030788;28;20216;-76
2024/03/23 07:29:00;;;;;;;7.73;3.00;;;9.80;99.90;;;;;;5047971;28;20193;-76
2024/03/23 07:31:26;;;;;;;6.40;3.23;;;10.40;99.90;;;;;;5050603;28;20701;-76
2024/03/23 07:33:52;;;;;;;9.50;3.67;;;11.00;99.90;;;;;;5050351;28;21010;-76
2024/03/23 07:36:18;;;;;;;10.10;3.93;;;11.80;99.90;;;;;;5034073;28;20169;-75
2024/03/23 07:38:47;;;;;;;4.73;2.73;;;12.50;99.90;;;;;;5045782;28;20242;-75
2024/03/23 07:41:19;;;;;;;12.83;3.30;;;13.40;99.90;;;;;;5038471;28;20174;-76
2024/03/23 07:43:46;;;;;;;9.10;3.60;;;14.10;99.90;;;;;;5046124;28;20614;-75
2024/03/23 07:46:12;;;;;;;5.43;3.00;;;14.80;99.90;;;;;;5043871;28;20973;-76
2024/03/23 07:48:38;;;;;;;9.63;3.17;;;15.50;99.90;;;;;;5022995;28;20627;-76
2024/03/23 07:51:06;;;;;;;5.87;2.90;;;16.10;99.90;;;;;;5039046;28;21253;-75
2024/03/23 07:53:33;;;;;;;7.70;2.90;;;16.50;99.90;;;;;;5057084;28;20604;-75
2024/03/23 07:56:05;;;;;;;8.27;3.30;;;17.00;99.90;;;;;;5052383;28;20564;-76
2024/03/23 07:58:31;;;;;;;12.53;3.57;;;17.00;99.90;;;;;;5059405;28;20714;-76
2024/03/23 08:01:05;;;;;;;6.07;4.00;;;17.20;99.90;;;;;;5064752;28;20594;-76
2024/03/23 08:03:30;;;;;;;5.60;2.70;;;17.50;99.90;;;;;;5062817;28;20226;-76
2024/03/23 08:05:56;;;;;;;6.00;3.13;;;18.00;99.90;;;;;;5063110;28;20799;-75
2024/03/23 08:08:22;;;;;;;5.80;3.23;;;18.50;99.90;;;;;;5051541;28;20590;-76
2024/03/23 08:10:51;;;;;;;4.20;3.13;;;18.90;99.90;;;;;;5056013;28;20208;-75
2024/03/23 08:13:17;;;;;;;5.70;2.47;;;19.40;99.90;;;;;;5054751;28;20176;-75
2024/03/23 08:15:43;;;;;;;4.40;2.00;;;19.90;99.90;;;;;;5038358;28;20606;-75
2024/03/23 08:18:11;;;;;;;4.83;1.87;;;20.30;99.90;;;;;;5059310;28;20630;-76
2024/03/23 08:20:37;;;;;;;7.00;1.97;;;20.80;99.90;;;;;;5052554;28;20614;-76
2024/03/23 08:23:04;;;;;;;5.20;2.00;;;21.30;99.90;;;;;;5055499;28;21148;-75
2024/03/23 08:25:33;;;;;;;7.37;1.87;;;21.60;99.90;;;;;;5030919;28;20253;-75
2024/03/23 08:27:59;;;;;;;5.00;1.50;;;22.00;99.90;;;;;;5045330;28;21020;-75
2024/03/23 08:30:25;;;;;;;5.60;1.67;;;22.20;99.90;;;;;;5050968;28;20643;-75
2024/03/23 08:32:51;;;;;;;6.10;1.50;;;22.20;99.90;;;;;;5050914;28;20181;-76
2024/03/23 08:35:17;;;;;;;4.43;1.33;;;21.70;99.90;;;;;;5050572;28;21168;-76
2024/03/23 08:37:42;;;;;;;8.20;1.77;;;21.20;99.90;;;;;;5032216;28;20631;-76
2024/03/23 08:40:08;;;;;;;3.00;1.10;;;20.50;99.90;;;;;;5047446;28;20704;-76
2024/03/23 08:42:35;;;;;;;6.20;1.70;;;19.70;99.90;;;;;;5044352;28;20196;-75
2024/03/23 08:45:01;;;;;;;2.90;1.70;;;19.00;99.90;;;;;;5049075;28;20592;-75
2024/03/23 08:47:26;;;;;;;6.57;2.67;;;18.30;99.90;;;;;;5037290;28;20623;-75
2024/03/23 08:49:52;;;;;;;6.60;2.43;;;18.00;99.90;;;;;;5030759;28;20206;-75
2024/03/23 08:52:18;;;;;;;6.00;2.20;;;17.90;99.90;;;;;;5047681;28;20373;-75
2024/03/23 08:54:44;;;;;;;6.23;2.47;;;17.90;99.90;;;;;;5040807;28;20260;-75
2024/03/23 08:57:09;;;;;;;7.47;2.30;;;18.00;99.90;;;;;;5047436;28;20261;-75
2024/03/23 08:59:37;;;;;;;6.87;2.30;;;17.90;99.90;;;;;;5034078;28;20173;-75
2024/03/23 09:02:03;;;;;;;4.90;2.63;;;17.70;99.90;;;;;;5032910;28;20178;-75
2024/03/23 09:04:29;;;;;;;8.60;2.63;;;17.70;99.90;;;;;;5036366;28;20946;-75
2024/03/23 09:06:54;;;;;;;8.63;3.53;;;17.80;99.90;;;;;;5043780;28;20664;-75
2024/03/23 09:09:20;;;;;;;4.33;2.30;;;17.80;99.90;;;;;;5044060;28;20665;-75
2024/03/23 09:11:45;;;;;;;9.13;2.40;;;17.70;99.90;;;;;;5048849;28;20181;-75
2024/03/23 09:14:11;;;;;;;7.17;2.67;;;17.80;99.90;;;;;;5050636;28;20541;-75
2024/03/23 09:16:37;;;;;;;6.70;2.30;;;17.60;99.90;;;;;;5048839;28;20385;-75
2024/03/23 09:19:03;;;;;;;6.03;2.30;;;17.30;99.90;;;;;;5050629;28;20224;-75
2024/03/23 09:21:28;;;;;;;6.00;2.23;;;16.90;99.90;;;;;;5054587;28;20181;-75
2024/03/23 09:23:54;;;;;;;5.10;2.27;;;16.50;99.90;;;;;;5054068;28;20584;-75
2024/03/23 09:26:20;;;;;;;7.47;2.00;;;16.00;99.90;;;;;;5051611;28;20743;-75
2024/03/23 09:28:49;;;;;;;9.50;2.47;;;15.50;99.90;;;;;;5031042;28;20219;-75
2024/03/23 09:31:15;;;;;;;11.00;2.50;;;15.10;99.90;;;;;;5036196;28;20204;-75
2024/03/23 09:33:41;;;;;;;6.23;2.40;;;14.70;99.90;;;;;;5052568;28;21003;-75
2024/03/23 09:36:07;;;;;;;6.17;2.03;;;14.90;99.90;;;;;;5054088;28;20586;-75
2024/03/23 09:38:33;;;;;;;8.13;2.43;;;15.30;99.90;;;;;;5046915;28;20613;-75
2024/03/23 09:40:59;;;;;;;4.37;2.50;;;15.40;99.90;;;;;;5049138;28;20650;-75
2024/03/23 09:43:25;;;;;;;7.20;2.80;;;15.30;99.90;;;;;;5048107;28;20587;-75
2024/03/23 09:45:52;;;;;;;10.30;2.00;;;15.20;99.90;;;;;;5053577;28;20686;-75
2024/03/23 09:48:18;;;;;;;4.93;1.30;;;15.10;99.90;;;;;;5035151;28;20616;-75
2024/03/23 09:50:45;;;;;;;3.47;1.50;;;15.00;99.90;;;;;;5038309;28;20650;-74
2024/03/23 09:53:12;;;;;;;6.67;2.80;;;14.90;99.90;;;;;;5045280;28;20636;-75
2024/03/23 09:55:40;;;;;;;4.93;1.87;;;14.80;99.90;;;;;;5052366;28;20583;-76
2024/03/23 09:58:05;;;;;;;9.20;2.50;;;14.90;99.90;;;;;;5053619;28;20657;-76
2024/03/23 10:00:35;;;;;;;4.60;2.40;;;15.60;99.90;;;;;;5053673;28;20586;-76
2024/03/23 10:03:06;;;;;;;6.37;1.77;;;16.60;99.90;;;;;;5037432;28;20588;-76
2024/03/23 10:05:33;;;;;;;5.23;1.60;;;17.40;99.90;;;;;;5045821;28;20587;-76
2024/03/23 10:08:16;;;;;;;3.50;1.10;;;18.20;99.90;;;;;;5053545;28;20618;-76
2024/03/23 10:10:43;;;;;;;5.10;1.13;;;18.90;99.90;;;;;;5032203;28;20721;-75
2024/03/23 10:13:09;;;;;;;5.17;1.20;;;19.30;99.90;;;;;;5033636;28;20585;-74
2024/03/23 10:15:36;;;;;;;4.33;1.10;;;19.50;99.90;;;;;;5051937;28;20607;-74
2024/03/23 10:18:19;;;;;;;5.13;1.20;;;19.50;99.90;;;;;;5056298;28;20627;-74
2024/03/23 10:20:50;;;;;;;4.37;1.20;;;19.20;99.90;;;;;;5040766;28;20599;-74
2024/03/23 10:23:16;;;;;;;5.90;1.20;;;18.90;99.90;;;;;;5043827;28;20604;-74
2024/03/23 10:25:42;;;;;;;5.50;1.33;;;18.80;99.90;;;;;;5049726;28;20596;-74
2024/03/23 10:28:09;;;;;;;6.77;1.20;;;18.80;99.90;;;;;;5043408;28;20936;-75
2024/03/23 10:30:35;;;;;;;4.23;1.20;;;18.60;99.90;;;;;;5043590;28;20642;-74
2024/03/23 10:33:11;;;;;;;3.40;1.53;;;18.30;99.90;;;;;;5052940;28;20571;-74
2024/03/23 10:35:38;;;;;;;4.13;1.13;;;17.80;99.30;;;;;;5047560;28;20588;-74
2024/03/23 10:38:07;;;;;;;5.60;1.00;;;17.30;99.90;;;;;;5044331;28;20623;-74
2024/03/23 10:40:37;;;;;;;2.10;0.80;;;16.80;99.80;;;;;;5052770;28;20599;-74
2024/03/23 10:43:08;;;;;;;2.43;0.70;;;16.30;99.90;;;;;;5048887;28;20613;-74
2024/03/23 10:45:33;;;;;;;4.73;1.13;;;15.90;99.90;;;;;;5040743;28;20592;-74
2024/03/23 10:47:59;;;;;;;4.43;1.00;;;15.50;99.90;;;;;;5039481;28;20972;-74
2024/03/23 10:50:25;;;;;;;3.20;0.83;;;15.20;99.90;;;;;;5050887;28;20276;-74
2024/03/23 10:52:53;;;;;;;3.17;0.90;;;15.00;99.90;;;;;;5017306;28;20177;-75
2024/03/23 10:55:20;;;;;;;5.80;0.93;;;14.90;99.90;;;;;;5033847;28;20584;-75
2024/03/23 10:57:51;;;;;;;3.20;1.30;;;14.90;99.90;;;;;;5039357;28;20983;-75
2024/03/23 11:00:18;;;;;;;5.20;1.60;;;15.00;99.90;;;;;;5045105;28;20637;-76
2024/03/23 11:02:47;;;;;;;5.20;2.27;;;15.00;99.90;;;;;;5038046;28;21006;-76
2024/03/23 11:05:34;;;;;;;4.40;2.10;;;15.00;99.90;;;;;;5034070;28;20973;-76
2024/03/23 11:07:59;;;;;;;4.27;1.90;;;14.80;99.90;;;;;;5036290;28;20658;-75
2024/03/23 11:10:30;;;;;;;4.70;1.60;;;14.70;99.90;;;;;;5030839;28;20640;-73
2024/03/23 11:13:22;;;;;;;6.00;1.63;;;14.70;99.90;;;;;;5047199;28;20587;-75
2024/03/23 11:15:48;;;;;;;4.93;1.33;;;15.20;99.90;;;;;;5050447;28;20626;-75
2024/03/23 11:18:20;;;;;;;3.27;1.60;;;15.80;99.90;;;;;;5033132;28;20632;-74
2024/03/23 11:20:46;;;;;;;3.20;1.47;;;16.30;99.90;;;;;;5032130;28;20926;-74
2024/03/23 11:23:28;;;;;;;6.03;1.23;;;16.90;99.90;;;;;;5033437;28;20681;-74
2024/03/23 11:25:53;;;;;;;3.47;0.80;;;17.30;99.90;;;;;;5031833;28;20296;-74
2024/03/23 11:28:19;;;;;;;1.93;0.80;;;17.30;99.90;;;;;;5031844;28;20620;-74
2024/03/23 11:30:45;;;;;;;3.07;1.20;;;17.00;99.90;;;;;;5030466;28;20620;-74
2024/03/23 11:33:10;;;;;;;3.20;0.80;;;16.60;99.90;;;;;;5031707;28;20185;-74
2024/03/23 11:35:40;;;;;;;4.60;1.70;;;16.10;99.90;;;;;;5048141;28;20664;-75
2024/03/23 11:38:20;;;;;;;2.93;1.00;;;15.60;99.90;;;;;;5043459;28;20203;-75
2024/03/23 11:40:47;;;;;;;2.67;1.10;;;15.10;99.90;;;;;;5013632;28;20612;-75
2024/03/23 11:43:18;;;;;;;2.73;0.70;;;14.90;99.90;;;;;;5037890;28;20579;-75
2024/03/23 11:45:44;;;;;;;2.47;0.70;;;14.90;99.90;;;;;;5031138;28;20580;-75
2024/03/23 11:48:14;;;;;;;2.20;0.60;;;14.90;99.90;;;;;;5036758;28;20612;-75
2024/03/23 11:50:44;;;;;;;3.53;0.70;;;14.80;99.90;;;;;;5031400;28;20658;-75
2024/03/23 11:53:20;;;;;;;2.17;0.70;;;14.70;99.90;;;;;;5030156;28;20583;-75
2024/03/23 11:55:53;;;;;;;4.30;1.20;;;14.50;99.90;;;;;;5053623;28;20589;-76
2024/03/23 11:58:24;;;;;;;3.90;1.20;;;14.50;99.90;;;;;;5043144;28;20608;-76
2024/03/23 12:00:57;;;;;;;3.30;0.70;;;14.30;99.90;;;;;;5013631;28;20595;-75
2024/03/23 12:03:25;;;;;;;4.10;0.80;;;14.00;99.90;;;;;;5032402;28;20591;-75
2024/03/23 12:05:56;;;;;;;2.97;0.97;;;13.70;99.90;;;;;;5036914;28;20690;-75
2024/03/23 12:08:25;;;;;;;3.73;1.00;;;13.40;99.90;;;;;;5042173;28;21318;-75
2024/03/23 12:11:06;;;;;;;2.63;0.77;;;13.10;99.90;;;;;;5035691;28;20647;-75
2024/03/23 12:13:32;;;;;;;2.90;0.93;;;12.90;99.90;;;;;;5031040;28;20570;-76
2024/03/23 12:16:10;;;;;;;3.10;1.25;;;12.70;99.90;;;;;;5044374;28;20177;-76
2024/03/23 12:18:37;;;;;;;3.25;1.20;;;12.50;99.90;;;;;;5037601;28;20719;-76
2024/03/23 12:21:03;;;;;;;3.40;1.40;;;12.60;99.90;;;;;;5039110;28;20173;-75
2024/03/23 12:23:29;;;;;;;4.10;1.23;;;12.80;99.90;;;;;;5034473;28;20580;-76
2024/03/23 12:25:54;;;;;;;3.97;0.90;;;13.00;99.90;;;;;;5030285;28;20589;-76
2024/03/23 12:28:20;;;;;;;2.97;0.83;;;13.00;99.90;;;;;;5031815;28;20223;-75
2024/03/23 12:30:46;;;;;;;1.93;0.90;;;13.00;99.90;;;;;;5030212;28;20675;-76
2024/03/23 12:33:12;;;;;;;3.03;0.90;;;12.80;99.90;;;;;;5047863;28;20196;-76
2024/03/23 12:35:37;;;;;;;2.53;1.20;;;12.60;99.90;;;;;;5033739;28;20546;-76
2024/03/23 12:38:03;;;;;;;3.17;1.60;;;12.40;99.90;;;;;;5030654;28;20648;-75
2024/03/23 12:40:29;;;;;;;2.53;1.30;;;12.20;99.90;;;;;;5030614;28;20522;-76
2024/03/23 12:42:56;;;;;;;1.80;0.60;;;11.90;99.90;;;;;;5030099;28;21160;-78
2024/03/23 12:45:22;;;;;;;1.50;0.70;;;11.60;99.90;;;;;;5028901;28;20589;-77
2024/03/23 12:47:48;;;;;;;1.63;0.65;;;11.30;99.90;;;;;;5037686;28;20189;-77
2024/03/23 12:50:13;;;;;;;1.80;0.70;;;11.20;99.90;;;;;;5029341;28;20715;-76